createdAt,value
2017-04-17T00:00:23.837Z,0
2017-04-17T00:01:23.799Z,0
2017-04-17T00:02:24.032Z,0
2017-04-17T00:03:23.772Z,0
2017-04-17T00:04:23.450Z,0
2017-04-17T00:05:23.748Z,0
2017-04-17T00:06:24.576Z,0
2017-04-17T00:07:23.402Z,0
2017-04-17T00:08:23.701Z,0
2017-04-17T00:09:24.640Z,0
2017-04-17T00:10:23.358Z,0
2017-04-17T00:11:23.659Z,0
2017-04-17T00:12:24.451Z,0
2017-04-17T00:13:23.637Z,0
2017-04-17T00:14:23.627Z,0
2017-04-17T00:15:24.073Z,0
2017-04-17T00:16:23.592Z,0
2017-04-17T00:17:23.622Z,0
2017-04-17T00:18:24.002Z,0
2017-04-17T00:19:23.560Z,0
2017-04-17T00:20:23.540Z,0
2017-04-17T00:21:23.523Z,0
2017-04-17T00:22:24.402Z,0
2017-04-17T00:23:23.501Z,0
2017-04-17T00:24:23.485Z,0
2017-04-17T00:25:24.397Z,0
2017-04-17T00:26:23.142Z,0
2017-04-17T00:27:23.451Z,0
2017-04-17T00:28:24.609Z,0
2017-04-17T00:29:23.419Z,0
2017-04-17T00:30:23.405Z,0
2017-04-17T00:31:24.494Z,0
2017-04-17T00:32:23.061Z,0
2017-04-17T00:33:23.364Z,0
2017-04-17T00:34:24.151Z,0
2017-04-17T00:35:23.408Z,0
2017-04-17T00:36:24.095Z,0
2017-04-17T00:37:23.311Z,0
2017-04-17T00:38:23.382Z,0
2017-04-17T00:39:23.286Z,0
2017-04-17T00:40:22.949Z,0
2017-04-17T00:41:23.262Z,0
2017-04-17T00:42:23.244Z,0
2017-04-17T00:43:23.224Z,0
2017-04-17T00:44:22.895Z,0
2017-04-17T00:45:23.208Z,0
2017-04-17T00:46:23.180Z,0
2017-04-17T00:47:22.854Z,0
2017-04-17T00:48:23.158Z,0
2017-04-17T00:49:23.155Z,0
2017-04-17T00:50:23.026Z,0
2017-04-17T00:51:22.486Z,0
2017-04-17T00:52:23.106Z,0
2017-04-17T00:53:23.097Z,0
2017-04-17T00:54:23.074Z,0
2017-04-17T00:55:23.867Z,0
2017-04-17T00:56:23.044Z,0
2017-04-17T00:57:23.037Z,0
2017-04-17T00:58:24.325Z,0
2017-04-17T00:59:23.011Z,0
2017-04-17T01:00:23.771Z,0
2017-04-17T01:01:36.001Z,0
2017-04-17T01:02:22.957Z,0
2017-04-17T01:03:23.456Z,0
2017-04-17T01:04:22.935Z,0
2017-04-17T01:05:22.917Z,0
2017-04-17T01:06:23.139Z,0
2017-04-17T01:07:22.981Z,0
2017-04-17T01:08:22.876Z,0
2017-04-17T01:09:23.241Z,0
2017-04-17T01:10:22.535Z,0
2017-04-17T01:11:22.836Z,0
2017-04-17T01:12:23.176Z,0
2017-04-17T01:13:22.805Z,0
2017-04-17T01:14:22.795Z,0
2017-04-17T01:15:22.897Z,0
2017-04-17T01:16:22.769Z,0
2017-04-17T01:17:22.431Z,0
2017-04-17T01:18:22.734Z,0
2017-04-17T01:19:22.722Z,0
2017-04-17T01:20:22.707Z,0
2017-04-17T01:21:22.375Z,0
2017-04-17T01:22:22.045Z,0
2017-04-17T01:23:22.354Z,0
2017-04-17T01:24:22.335Z,0
2017-04-17T01:25:22.002Z,0
2017-04-17T01:26:22.305Z,0
2017-04-17T01:27:22.292Z,0
2017-04-17T01:28:22.282Z,0
2017-04-17T01:29:22.583Z,0
2017-04-17T01:30:22.562Z,0
2017-04-17T01:31:22.547Z,0
2017-04-17T01:32:21.906Z,0
2017-04-17T01:33:22.558Z,0
2017-04-17T01:34:22.625Z,0
2017-04-17T01:35:22.487Z,0
2017-04-17T01:36:22.471Z,0
2017-04-17T01:37:22.454Z,0
2017-04-17T01:38:22.452Z,0
2017-04-17T01:39:22.112Z,0
2017-04-17T01:40:22.418Z,0
2017-04-17T01:41:21.773Z,0
2017-04-17T01:42:22.385Z,0
2017-04-17T01:43:22.418Z,0
2017-04-17T01:44:22.365Z,0
2017-04-17T01:45:22.346Z,0
2017-04-17T01:46:22.332Z,0
2017-04-17T01:47:22.312Z,0
2017-04-17T01:48:22.303Z,0
2017-04-17T01:49:22.289Z,0
2017-04-17T01:50:22.271Z,0
2017-04-17T01:51:21.936Z,0
2017-04-17T01:52:22.237Z,0
2017-04-17T01:53:21.906Z,0
2017-04-17T01:54:22.212Z,0
2017-04-17T01:55:22.194Z,0
2017-04-17T01:56:21.550Z,0
2017-04-17T01:57:22.164Z,0
2017-04-17T01:58:22.155Z,0
2017-04-17T01:59:22.131Z,0
2017-04-17T02:00:22.116Z,0
2017-04-17T02:01:21.781Z,0
2017-04-17T02:02:22.123Z,0
2017-04-17T02:03:22.069Z,0
2017-04-17T02:04:22.055Z,0
2017-04-17T02:05:22.040Z,0
2017-04-17T02:06:22.026Z,0
2017-04-17T02:07:22.010Z,0
2017-04-17T02:08:22.014Z,0
2017-04-17T02:09:21.985Z,0
2017-04-17T02:10:22.240Z,0
2017-04-17T02:11:21.951Z,0
2017-04-17T02:12:21.943Z,0
2017-04-17T02:13:21.611Z,0
2017-04-17T02:14:21.905Z,0
2017-04-17T02:15:21.895Z,0
2017-04-17T02:16:21.876Z,0
2017-04-17T02:17:21.861Z,0
2017-04-17T02:18:21.538Z,0
2017-04-17T02:19:21.837Z,0
2017-04-17T02:20:21.823Z,0
2017-04-17T02:21:21.486Z,0
2017-04-17T02:22:21.787Z,0
2017-04-17T02:23:21.462Z,0
2017-04-17T02:24:21.760Z,0
2017-04-17T02:25:21.744Z,0
2017-04-17T02:26:21.733Z,0
2017-04-17T02:27:21.719Z,0
2017-04-17T02:28:21.703Z,0
2017-04-17T02:29:21.374Z,0
2017-04-17T02:30:21.357Z,0
2017-04-17T02:31:21.342Z,0
2017-04-17T02:32:21.639Z,0
2017-04-17T02:33:21.626Z,0
2017-04-17T02:34:21.607Z,0
2017-04-17T02:35:21.285Z,0
2017-04-17T02:36:21.737Z,0
2017-04-17T02:37:21.565Z,0
2017-04-17T02:38:21.554Z,0
2017-04-17T02:39:21.226Z,0
2017-04-17T02:40:21.523Z,0
2017-04-17T02:41:21.190Z,0
2017-04-17T02:42:21.177Z,0
2017-04-17T02:43:21.165Z,0
2017-04-17T02:44:21.150Z,0
2017-04-17T02:45:21.130Z,0
2017-04-17T02:46:21.122Z,0
2017-04-17T02:47:21.418Z,0
2017-04-17T02:48:21.404Z,0
2017-04-17T02:49:21.388Z,0
2017-04-17T02:50:21.069Z,0
2017-04-17T02:51:21.358Z,0
2017-04-17T02:52:21.348Z,0
2017-04-17T02:53:21.337Z,0
2017-04-17T02:54:21.629Z,0
2017-04-17T02:55:20.686Z,0
2017-04-17T02:56:20.655Z,0
2017-04-17T02:57:20.957Z,0
2017-04-17T02:58:20.943Z,0
2017-04-17T02:59:20.930Z,0
2017-04-17T03:00:21.225Z,0
2017-04-17T03:01:20.901Z,0
2017-04-17T03:02:21.201Z,0
2017-04-17T03:03:20.991Z,0
2017-04-17T03:04:21.171Z,0
2017-04-17T03:05:21.152Z,0
2017-04-17T03:06:20.823Z,0
2017-04-17T03:07:20.808Z,0
2017-04-17T03:08:21.109Z,0
2017-04-17T03:09:20.779Z,0
2017-04-17T03:10:21.088Z,0
2017-04-17T03:11:21.066Z,0
2017-04-17T03:12:20.737Z,0
2017-04-17T03:13:21.034Z,0
2017-04-17T03:14:21.022Z,0
2017-04-17T03:15:21.009Z,0
2017-04-17T03:16:20.677Z,0
2017-04-17T03:17:20.659Z,0
2017-04-17T03:18:20.333Z,0
2017-04-17T03:19:20.955Z,0
2017-04-17T03:20:20.933Z,0
2017-04-17T03:21:21.142Z,0
2017-04-17T03:22:20.591Z,0
2017-04-17T03:23:20.611Z,0
2017-04-17T03:24:20.559Z,0
2017-04-17T03:25:20.228Z,0
2017-04-17T03:26:20.838Z,0
2017-04-17T03:27:20.516Z,0
2017-04-17T03:28:20.499Z,0
2017-04-17T03:29:20.480Z,0
2017-04-17T03:30:20.946Z,0
2017-04-17T03:31:20.771Z,0
2017-04-17T03:32:20.444Z,0
2017-04-17T03:33:20.773Z,0
2017-04-17T03:34:20.730Z,0
2017-04-17T03:35:20.079Z,0
2017-04-17T03:36:20.378Z,0
2017-04-17T03:37:20.677Z,0
2017-04-17T03:38:20.668Z,0
2017-04-17T03:39:20.673Z,0
2017-04-17T03:40:20.632Z,0
2017-04-17T03:41:20.617Z,0
2017-04-17T03:42:20.298Z,0
2017-04-17T03:43:20.279Z,0
2017-04-17T03:44:20.263Z,0
2017-04-17T03:45:20.559Z,0
2017-04-17T03:46:20.231Z,0
2017-04-17T03:47:20.566Z,4
2017-04-17T03:48:20.657Z,4
2017-04-17T03:49:20.183Z,4
2017-04-17T03:50:20.482Z,0
2017-04-17T03:51:20.471Z,4
2017-04-17T03:52:20.455Z,0
2017-04-17T03:53:20.445Z,0
2017-04-17T03:54:20.427Z,4
2017-04-17T03:55:20.408Z,4
2017-04-17T03:56:20.152Z,4
2017-04-17T03:57:20.384Z,4
2017-04-17T03:58:20.370Z,4
2017-04-17T03:59:20.043Z,4
2017-04-17T04:00:20.331Z,8
2017-04-17T04:01:20.317Z,8
2017-04-17T04:02:20.329Z,8
2017-04-17T04:03:20.293Z,12
2017-04-17T04:04:19.961Z,12
2017-04-17T04:05:20.157Z,12
2017-04-17T04:06:19.932Z,16
2017-04-17T04:07:20.230Z,16
2017-04-17T04:08:19.900Z,20
2017-04-17T04:09:20.201Z,20
2017-04-17T04:10:20.184Z,24
2017-04-17T04:11:20.169Z,32
2017-04-17T04:12:19.837Z,36
2017-04-17T04:13:19.821Z,40
2017-04-17T04:14:20.122Z,56
2017-04-17T04:15:19.791Z,76
2017-04-17T04:16:19.779Z,64
2017-04-17T04:17:19.764Z,48
2017-04-17T04:18:20.069Z,48
2017-04-17T04:19:20.063Z,48
2017-04-17T04:20:20.036Z,48
2017-04-17T04:21:19.702Z,44
2017-04-17T04:22:19.717Z,44
2017-04-17T04:23:19.991Z,40
2017-04-17T04:24:19.976Z,44
2017-04-17T04:25:19.955Z,56
2017-04-17T04:26:19.631Z,64
2017-04-17T04:27:19.933Z,72
2017-04-17T04:28:19.281Z,64
2017-04-17T04:29:19.899Z,60
2017-04-17T04:30:19.569Z,60
2017-04-17T04:31:19.909Z,72
2017-04-17T04:32:19.870Z,72
2017-04-17T04:33:19.843Z,76
2017-04-17T04:34:19.842Z,88
2017-04-17T04:35:19.496Z,100
2017-04-17T04:36:19.486Z,96
2017-04-17T04:37:19.465Z,120
2017-04-17T04:38:19.447Z,152
2017-04-17T04:39:19.762Z,168
2017-04-17T04:40:19.104Z,160
2017-04-17T04:41:19.979Z,168
2017-04-17T04:42:19.709Z,164
2017-04-17T04:43:19.694Z,156
2017-04-17T04:44:19.367Z,192
2017-04-17T04:45:19.344Z,196
2017-04-17T04:46:19.331Z,200
2017-04-17T04:47:19.632Z,176
2017-04-17T04:48:19.615Z,188
2017-04-17T04:49:19.425Z,216
2017-04-17T04:50:19.586Z,220
2017-04-17T04:51:19.568Z,252
2017-04-17T04:52:19.553Z,280
2017-04-17T04:53:19.243Z,268
2017-04-17T04:54:19.245Z,248
2017-04-17T04:55:19.199Z,252
2017-04-17T04:56:18.868Z,272
2017-04-17T04:57:19.481Z,300
2017-04-17T04:58:19.466Z,344
2017-04-17T04:59:19.452Z,392
2017-04-17T05:00:19.122Z,432
2017-04-17T05:01:19.424Z,480
2017-04-17T05:02:19.087Z,532
2017-04-17T05:03:19.082Z,656
2017-04-17T05:04:19.066Z,668
2017-04-17T05:05:19.364Z,592
2017-04-17T05:06:19.510Z,504
2017-04-17T05:07:19.330Z,468
2017-04-17T05:08:19.351Z,548
2017-04-17T05:09:18.993Z,640
2017-04-17T05:10:19.014Z,632
2017-04-17T05:11:19.281Z,392
2017-04-17T05:12:19.265Z,296
2017-04-17T05:13:19.250Z,260
2017-04-17T05:14:18.920Z,244
2017-04-17T05:15:19.227Z,244
2017-04-17T05:16:18.572Z,276
2017-04-17T05:17:18.869Z,412
2017-04-17T05:18:18.853Z,520
2017-04-17T05:19:19.157Z,476
2017-04-17T05:20:19.141Z,440
2017-04-17T05:21:19.122Z,388
2017-04-17T05:22:19.110Z,360
2017-04-17T05:23:18.781Z,332
2017-04-17T05:24:19.081Z,332
2017-04-17T05:25:19.068Z,328
2017-04-17T05:26:18.735Z,312
2017-04-17T05:27:19.047Z,320
2017-04-17T05:28:19.021Z,332
2017-04-17T05:29:18.692Z,368
2017-04-17T05:30:18.363Z,416
2017-04-17T05:31:18.345Z,452
2017-04-17T05:32:18.653Z,472
2017-04-17T05:33:18.951Z,664
2017-04-17T05:34:18.934Z,800
2017-04-17T05:35:18.916Z,804
2017-04-17T05:36:18.271Z,832
2017-04-17T05:37:18.889Z,836
2017-04-17T05:38:18.560Z,832
2017-04-17T05:39:18.860Z,740
2017-04-17T05:40:18.533Z,796
2017-04-17T05:41:18.584Z,976
2017-04-17T05:42:18.493Z,916
2017-04-17T05:43:18.800Z,1180
2017-04-17T05:44:18.778Z,1620
2017-04-17T05:45:18.764Z,2444
2017-04-17T05:46:18.753Z,1924
2017-04-17T05:47:18.742Z,2040
2017-04-17T05:48:18.735Z,2176
2017-04-17T05:49:18.818Z,2700
2017-04-17T05:50:18.375Z,2828
2017-04-17T05:51:18.685Z,2788
2017-04-17T05:52:18.664Z,2868
2017-04-17T05:53:18.648Z,2904
2017-04-17T05:54:18.854Z,2828
2017-04-17T05:55:18.621Z,2716
2017-04-17T05:56:18.287Z,2700
2017-04-17T05:57:18.272Z,2628
2017-04-17T05:58:18.721Z,2364
2017-04-17T05:59:18.559Z,2200
2017-04-17T06:00:18.546Z,2036
2017-04-17T06:01:18.527Z,1968
2017-04-17T06:02:18.513Z,1864
2017-04-17T06:03:18.499Z,1744
2017-04-17T06:04:18.172Z,1464
2017-04-17T06:05:18.157Z,1168
2017-04-17T06:06:17.827Z,1128
2017-04-17T06:07:18.406Z,1240
2017-04-17T06:08:18.425Z,1300
2017-04-17T06:09:18.415Z,1352
2017-04-17T06:10:18.080Z,1124
2017-04-17T06:11:18.379Z,1336
2017-04-17T06:12:18.366Z,1468
2017-04-17T06:13:18.354Z,1092
2017-04-17T06:14:18.335Z,920
2017-04-17T06:15:18.116Z,1036
2017-04-17T06:16:18.306Z,1124
2017-04-17T06:17:17.975Z,1124
2017-04-17T06:18:18.275Z,1116
2017-04-17T06:19:17.947Z,1024
2017-04-17T06:20:18.246Z,940
2017-04-17T06:21:18.233Z,972
2017-04-17T06:22:18.214Z,960
2017-04-17T06:23:18.208Z,976
2017-04-17T06:24:18.190Z,980
2017-04-17T06:25:18.171Z,900
2017-04-17T06:26:18.155Z,752
2017-04-17T06:27:18.142Z,708
2017-04-17T06:28:18.128Z,796
2017-04-17T06:29:17.799Z,864
2017-04-17T06:30:17.467Z,964
2017-04-17T06:31:18.082Z,1056
2017-04-17T06:32:17.755Z,1036
2017-04-17T06:33:18.007Z,1076
2017-04-17T06:34:17.738Z,1196
2017-04-17T06:35:18.031Z,1408
2017-04-17T06:36:17.696Z,1796
2017-04-17T06:37:18.002Z,2292
2017-04-17T06:38:17.983Z,2588
2017-04-17T06:39:17.965Z,2812
2017-04-17T06:40:17.321Z,2808
2017-04-17T06:41:18.030Z,2872
2017-04-17T06:42:17.928Z,3680
2017-04-17T06:43:16.963Z,3604
2017-04-17T06:44:17.895Z,3436
2017-04-17T06:45:17.875Z,2936
2017-04-17T06:46:17.872Z,2904
2017-04-17T06:47:17.845Z,2840
2017-04-17T06:48:16.885Z,2556
2017-04-17T06:49:17.188Z,2240
2017-04-17T06:50:17.108Z,2164
2017-04-17T06:51:17.794Z,2188
2017-04-17T06:52:17.775Z,2272
2017-04-17T06:53:17.132Z,2184
2017-04-17T06:54:17.748Z,1924
2017-04-17T06:55:17.724Z,1808
2017-04-17T06:56:17.397Z,1836
2017-04-17T06:57:17.385Z,1892
2017-04-17T06:58:17.381Z,1836
2017-04-17T06:59:17.700Z,1964
2017-04-17T07:00:17.659Z,1788
2017-04-17T07:01:17.641Z,1584
2017-04-17T07:02:17.314Z,1508
2017-04-17T07:03:17.610Z,1640
2017-04-17T07:04:17.280Z,1436
2017-04-17T07:05:17.584Z,1452
2017-04-17T07:06:17.256Z,1712
2017-04-17T07:07:17.295Z,2092
2017-04-17T07:08:17.223Z,2136
2017-04-17T07:09:17.525Z,2212
2017-04-17T07:10:17.506Z,2420
2017-04-17T07:11:17.175Z,2612
2017-04-17T07:12:17.159Z,2748
2017-04-17T07:13:17.460Z,2960
2017-04-17T07:14:17.445Z,3336
2017-04-17T07:15:17.431Z,3504
2017-04-17T07:16:17.669Z,3940
2017-04-17T07:17:17.400Z,4044
2017-04-17T07:18:17.072Z,3768
2017-04-17T07:19:17.369Z,3568
2017-04-17T07:20:17.361Z,3408
2017-04-17T07:21:17.340Z,3268
2017-04-17T07:22:17.332Z,3308
2017-04-17T07:23:17.308Z,3312
2017-04-17T07:24:17.344Z,3292
2017-04-17T07:25:16.965Z,2976
2017-04-17T07:26:16.950Z,2680
2017-04-17T07:27:16.946Z,2492
2017-04-17T07:28:16.919Z,2328
2017-04-17T07:29:16.904Z,2332
2017-04-17T07:30:16.575Z,2352
2017-04-17T07:31:16.873Z,2480
2017-04-17T07:32:17.171Z,2776
2017-04-17T07:33:16.846Z,3208
2017-04-17T07:34:17.144Z,3900
2017-04-17T07:35:17.126Z,4608
2017-04-17T07:36:17.116Z,4872
2017-04-17T07:37:16.788Z,4664
2017-04-17T07:38:17.083Z,4408
2017-04-17T07:39:17.070Z,4148
2017-04-17T07:40:16.749Z,3876
2017-04-17T07:41:16.899Z,3500
2017-04-17T07:42:17.024Z,3124
2017-04-17T07:43:16.694Z,2848
2017-04-17T07:44:16.680Z,2588
2017-04-17T07:45:16.981Z,2376
2017-04-17T07:46:16.655Z,2352
2017-04-17T07:47:16.953Z,2436
2017-04-17T07:48:16.313Z,2496
2017-04-17T07:49:16.611Z,2624
2017-04-17T07:50:16.596Z,2844
2017-04-17T07:51:16.577Z,3256
2017-04-17T07:52:16.306Z,3748
2017-04-17T07:53:16.550Z,4072
2017-04-17T07:54:16.850Z,4236
2017-04-17T07:55:16.832Z,4384
2017-04-17T07:56:16.507Z,4612
2017-04-17T07:57:16.490Z,4944
2017-04-17T07:58:16.799Z,5392
2017-04-17T07:59:16.970Z,5528
2017-04-17T08:00:16.141Z,5416
2017-04-17T08:01:16.120Z,5388
2017-04-17T08:02:16.736Z,5532
2017-04-17T08:03:16.426Z,5676
2017-04-17T08:04:16.390Z,5688
2017-04-17T08:05:17.070Z,5556
2017-04-17T08:06:16.359Z,5600
2017-04-17T08:07:16.661Z,5664
2017-04-17T08:08:17.095Z,5732
2017-04-17T08:09:16.316Z,5740
2017-04-17T08:10:16.616Z,5628
2017-04-17T08:11:16.289Z,5536
2017-04-17T08:12:16.269Z,5488
2017-04-17T08:13:16.264Z,5272
2017-04-17T08:14:16.562Z,4968
2017-04-17T08:15:16.547Z,4716
2017-04-17T08:16:16.530Z,4568
2017-04-17T08:17:16.865Z,4480
2017-04-17T08:18:16.502Z,4464
2017-04-17T08:19:16.497Z,4532
2017-04-17T08:20:16.479Z,4676
2017-04-17T08:21:16.462Z,4808
2017-04-17T08:22:16.448Z,4800
2017-04-17T08:23:16.124Z,4748
2017-04-17T08:24:16.424Z,4732
2017-04-17T08:25:16.264Z,4712
2017-04-17T08:26:16.427Z,4732
2017-04-17T08:27:16.058Z,4784
2017-04-17T08:28:16.367Z,4864
2017-04-17T08:29:16.345Z,4904
2017-04-17T08:30:16.021Z,5032
2017-04-17T08:31:16.006Z,5376
2017-04-17T08:32:15.990Z,5768
2017-04-17T08:33:15.977Z,6124
2017-04-17T08:34:16.337Z,6408
2017-04-17T08:35:16.258Z,6540
2017-04-17T08:36:16.253Z,6520
2017-04-17T08:37:15.925Z,6712
2017-04-17T08:38:15.907Z,7176
2017-04-17T08:39:16.206Z,7628
2017-04-17T08:40:16.203Z,7856
2017-04-17T08:41:16.183Z,7944
2017-04-17T08:42:16.166Z,8196
2017-04-17T08:43:16.026Z,8644
2017-04-17T08:44:15.834Z,9016
2017-04-17T08:45:16.123Z,9184
2017-04-17T08:46:16.109Z,9160
2017-04-17T08:47:16.097Z,9076
2017-04-17T08:48:15.776Z,9124
2017-04-17T08:49:15.443Z,9028
2017-04-17T08:50:16.055Z,8740
2017-04-17T08:51:16.043Z,8720
2017-04-17T08:52:16.028Z,8728
2017-04-17T08:53:15.391Z,8248
2017-04-17T08:54:16.011Z,7924
2017-04-17T08:55:15.989Z,7796
2017-04-17T08:56:15.979Z,8284
2017-04-17T08:57:15.962Z,9104
2017-04-17T08:58:15.949Z,10040
2017-04-17T08:59:15.942Z,10904
2017-04-17T09:00:16.161Z,11608
2017-04-17T09:01:15.908Z,11880
2017-04-17T09:02:15.581Z,11840
2017-04-17T09:03:15.899Z,11628
2017-04-17T09:04:15.874Z,11388
2017-04-17T09:05:15.856Z,11320
2017-04-17T09:06:15.532Z,11216
2017-04-17T09:07:15.837Z,11220
2017-04-17T09:08:15.820Z,11392
2017-04-17T09:09:15.807Z,11724
2017-04-17T09:10:15.482Z,12124
2017-04-17T09:11:15.153Z,12496
2017-04-17T09:12:15.453Z,12800
2017-04-17T09:13:15.764Z,13072
2017-04-17T09:14:15.430Z,13424
2017-04-17T09:15:15.730Z,13808
2017-04-17T09:16:15.623Z,14192
2017-04-17T09:17:15.393Z,14436
2017-04-17T09:18:15.402Z,14504
2017-04-17T09:19:15.377Z,14368
2017-04-17T09:20:15.354Z,14124
2017-04-17T09:21:15.342Z,13764
2017-04-17T09:22:15.018Z,13452
2017-04-17T09:23:15.326Z,13424
2017-04-17T09:24:15.625Z,13676
2017-04-17T09:25:15.713Z,13920
2017-04-17T09:26:15.287Z,13896
2017-04-17T09:27:15.608Z,13700
2017-04-17T09:28:15.582Z,13612
2017-04-17T09:29:15.563Z,13692
2017-04-17T09:30:15.233Z,13792
2017-04-17T09:31:15.227Z,13740
2017-04-17T09:32:14.586Z,13492
2017-04-17T09:33:15.522Z,13140
2017-04-17T09:34:15.209Z,12932
2017-04-17T09:35:15.180Z,12852
2017-04-17T09:36:15.482Z,12948
2017-04-17T09:37:15.473Z,13172
2017-04-17T09:38:15.145Z,13188
2017-04-17T09:39:15.135Z,13116
2017-04-17T09:40:14.807Z,13048
2017-04-17T09:41:15.425Z,12912
2017-04-17T09:42:14.786Z,12764
2017-04-17T09:43:15.409Z,13116
2017-04-17T09:44:15.427Z,13196
2017-04-17T09:45:15.398Z,13252
2017-04-17T09:46:15.056Z,13368
2017-04-17T09:47:15.043Z,13588
2017-04-17T09:48:15.350Z,13852
2017-04-17T09:49:14.713Z,14124
2017-04-17T09:50:15.011Z,14308
2017-04-17T09:51:15.001Z,14392
2017-04-17T09:52:15.308Z,14280
2017-04-17T09:53:15.300Z,13952
2017-04-17T09:54:14.969Z,13644
2017-04-17T09:55:15.271Z,13400
2017-04-17T09:56:14.948Z,13260
2017-04-17T09:57:15.252Z,13088
2017-04-17T09:58:14.963Z,12780
2017-04-17T09:59:15.421Z,12248
2017-04-17T10:00:14.902Z,11576
2017-04-17T10:01:14.898Z,10952
2017-04-17T10:02:14.567Z,10508
2017-04-17T10:03:15.191Z,10392
2017-04-17T10:04:15.178Z,10356
2017-04-17T10:05:15.162Z,10020
2017-04-17T10:06:14.746Z,9752
2017-04-17T10:07:15.144Z,9496
2017-04-17T10:08:15.136Z,10100
2017-04-17T10:09:14.814Z,10804
2017-04-17T10:10:15.112Z,11264
2017-04-17T10:11:14.787Z,11504
2017-04-17T10:12:14.776Z,11576
2017-04-17T10:13:15.079Z,11716
2017-04-17T10:14:14.438Z,11832
2017-04-17T10:15:15.056Z,11956
2017-04-17T10:16:15.046Z,11988
2017-04-17T10:17:15.183Z,11924
2017-04-17T10:18:15.025Z,11696
2017-04-17T10:19:15.014Z,11492
2017-04-17T10:20:15.001Z,11276
2017-04-17T10:21:14.992Z,11140
2017-04-17T10:22:14.989Z,10936
2017-04-17T10:23:14.973Z,10752
2017-04-17T10:24:14.966Z,10972
2017-04-17T10:25:14.638Z,11076
2017-04-17T10:26:14.626Z,11312
2017-04-17T10:27:14.936Z,11816
2017-04-17T10:28:14.613Z,12236
2017-04-17T10:29:15.377Z,12536
2017-04-17T10:30:14.903Z,12940
2017-04-17T10:31:14.575Z,12800
2017-04-17T10:32:14.561Z,12240
2017-04-17T10:33:14.866Z,12460
2017-04-17T10:34:14.855Z,12880
2017-04-17T10:35:14.844Z,12856
2017-04-17T10:36:14.202Z,12500
2017-04-17T10:37:14.820Z,12456
2017-04-17T10:38:14.813Z,12484
2017-04-17T10:39:14.801Z,12124
2017-04-17T10:40:14.864Z,11960
2017-04-17T10:41:14.776Z,12132
2017-04-17T10:42:14.763Z,12212
2017-04-17T10:43:14.753Z,12220
2017-04-17T10:44:14.440Z,12268
2017-04-17T10:45:14.734Z,12228
2017-04-17T10:46:14.410Z,12168
2017-04-17T10:47:14.726Z,12516
2017-04-17T10:48:14.704Z,13012
2017-04-17T10:49:14.384Z,13148
2017-04-17T10:50:14.679Z,13436
2017-04-17T10:51:14.359Z,13620
2017-04-17T10:52:14.344Z,13172
2017-04-17T10:53:14.654Z,12416
2017-04-17T10:54:14.323Z,11556
2017-04-17T10:55:14.626Z,10704
2017-04-17T10:56:14.300Z,10388
2017-04-17T10:57:14.613Z,10780
2017-04-17T10:58:14.281Z,11240
2017-04-17T10:59:14.585Z,11752
2017-04-17T11:00:14.571Z,12164
2017-04-17T11:01:14.563Z,12372
2017-04-17T11:02:14.241Z,12492
2017-04-17T11:03:14.232Z,12420
2017-04-17T11:04:14.532Z,12368
2017-04-17T11:05:14.523Z,12360
2017-04-17T11:06:14.511Z,12344
2017-04-17T11:07:14.186Z,12340
2017-04-17T11:08:14.491Z,12460
2017-04-17T11:09:14.476Z,12652
2017-04-17T11:10:14.468Z,12796
2017-04-17T11:11:14.493Z,12884
2017-04-17T11:12:14.448Z,12780
2017-04-17T11:13:14.439Z,12504
2017-04-17T11:14:14.619Z,12244
2017-04-17T11:15:14.417Z,12072
2017-04-17T11:16:14.404Z,11928
2017-04-17T11:17:14.397Z,11740
2017-04-17T11:18:14.384Z,11548
2017-04-17T11:19:14.370Z,11400
2017-04-17T11:20:14.048Z,11312
2017-04-17T11:21:14.350Z,11312
2017-04-17T11:22:13.393Z,11460
2017-04-17T11:23:14.059Z,11672
2017-04-17T11:24:14.002Z,11888
2017-04-17T11:25:14.311Z,12052
2017-04-17T11:26:14.044Z,12200
2017-04-17T11:27:13.971Z,12340
2017-04-17T11:28:14.278Z,12508
2017-04-17T11:29:14.263Z,12688
2017-04-17T11:30:13.943Z,12856
2017-04-17T11:31:14.068Z,12984
2017-04-17T11:32:14.227Z,13044
2017-04-17T11:33:13.596Z,13048
2017-04-17T11:34:14.215Z,13088
2017-04-17T11:35:13.882Z,13192
2017-04-17T11:36:14.190Z,13244
2017-04-17T11:37:14.174Z,13244
2017-04-17T11:38:13.857Z,13052
2017-04-17T11:39:13.843Z,12772
2017-04-17T11:40:14.284Z,12452
2017-04-17T11:41:14.133Z,12560
2017-04-17T11:42:14.118Z,12380
2017-04-17T11:43:14.110Z,12324
2017-04-17T11:44:14.100Z,12328
2017-04-17T11:45:14.088Z,12220
2017-04-17T11:46:13.452Z,12204
2017-04-17T11:47:13.755Z,12308
2017-04-17T11:48:14.059Z,12476
2017-04-17T11:49:13.734Z,12956
2017-04-17T11:50:14.035Z,13272
2017-04-17T11:51:13.395Z,13352
2017-04-17T11:52:13.698Z,13524
2017-04-17T11:53:13.691Z,13228
2017-04-17T11:54:13.992Z,12900
2017-04-17T11:55:13.354Z,12600
2017-04-17T11:56:13.997Z,12464
2017-04-17T11:57:13.963Z,12456
2017-04-17T11:58:13.951Z,12332
2017-04-17T11:59:13.947Z,12292
2017-04-17T12:00:13.930Z,12664
2017-04-17T12:01:13.605Z,13164
2017-04-17T12:02:13.908Z,13528
2017-04-17T12:03:13.585Z,13684
2017-04-17T12:04:13.906Z,13580
2017-04-17T12:05:13.880Z,13412
2017-04-17T12:06:13.242Z,13188
2017-04-17T12:07:13.858Z,13004
2017-04-17T12:08:13.846Z,13036
2017-04-17T12:09:13.839Z,13200
2017-04-17T12:10:13.827Z,13420
2017-04-17T12:11:13.815Z,13540
2017-04-17T12:12:13.492Z,13552
2017-04-17T12:13:13.791Z,13624
2017-04-17T12:14:13.475Z,13672
2017-04-17T12:15:13.780Z,13696
2017-04-17T12:16:13.763Z,13732
2017-04-17T12:17:13.754Z,13768
2017-04-17T12:18:13.434Z,13828
2017-04-17T12:19:13.416Z,13980
2017-04-17T12:20:13.406Z,14192
2017-04-17T12:21:13.707Z,14412
2017-04-17T12:22:13.702Z,14612
2017-04-17T12:23:13.372Z,14728
2017-04-17T12:24:13.051Z,14708
2017-04-17T12:25:13.681Z,14456
2017-04-17T12:26:13.654Z,14188
2017-04-17T12:27:13.648Z,14180
2017-04-17T12:28:13.641Z,14336
2017-04-17T12:29:13.758Z,14672
2017-04-17T12:30:13.614Z,14944
2017-04-17T12:31:13.619Z,14976
2017-04-17T12:32:13.599Z,14780
2017-04-17T12:33:13.585Z,14784
2017-04-17T12:34:12.943Z,14800
2017-04-17T12:35:13.562Z,14864
2017-04-17T12:36:13.248Z,14760
2017-04-17T12:37:13.546Z,14564
2017-04-17T12:38:14.261Z,14464
2017-04-17T12:39:13.535Z,14584
2017-04-17T12:40:13.199Z,14848
2017-04-17T12:41:13.510Z,15076
2017-04-17T12:42:13.192Z,15168
2017-04-17T12:43:13.174Z,15188
2017-04-17T12:44:13.164Z,15124
2017-04-17T12:45:13.469Z,14972
2017-04-17T12:46:13.456Z,15100
2017-04-17T12:47:13.449Z,15224
2017-04-17T12:48:13.126Z,15192
2017-04-17T12:49:13.435Z,14996
2017-04-17T12:50:13.423Z,15180
2017-04-17T12:51:13.414Z,14792
2017-04-17T12:52:13.092Z,14568
2017-04-17T12:53:13.399Z,14396
2017-04-17T12:54:13.482Z,14500
2017-04-17T12:55:13.061Z,14500
2017-04-17T12:56:13.054Z,14776
2017-04-17T12:57:13.360Z,14808
2017-04-17T12:58:13.351Z,14516
2017-04-17T12:59:13.344Z,14212
2017-04-17T13:00:13.332Z,13304
2017-04-17T13:01:13.326Z,12120
2017-04-17T13:02:13.316Z,11380
2017-04-17T13:03:13.306Z,10852
2017-04-17T13:04:12.988Z,9920
2017-04-17T13:05:12.975Z,9336
2017-04-17T13:06:13.278Z,9568
2017-04-17T13:07:13.270Z,11512
2017-04-17T13:08:13.263Z,12936
2017-04-17T13:09:13.258Z,13184
2017-04-17T13:10:12.927Z,12900
2017-04-17T13:11:13.149Z,12408
2017-04-17T13:12:12.909Z,11456
2017-04-17T13:13:13.211Z,12140
2017-04-17T13:14:12.893Z,12876
2017-04-17T13:15:13.199Z,12356
2017-04-17T13:16:13.189Z,11956
2017-04-17T13:17:13.177Z,10284
2017-04-17T13:18:13.175Z,9040
2017-04-17T13:19:13.161Z,8436
2017-04-17T13:20:13.367Z,7656
2017-04-17T13:21:12.513Z,7516
2017-04-17T13:22:13.132Z,7756
2017-04-17T13:23:13.124Z,8320
2017-04-17T13:24:13.114Z,9460
2017-04-17T13:25:13.102Z,9344
2017-04-17T13:26:13.093Z,9864
2017-04-17T13:27:13.085Z,10508
2017-04-17T13:28:13.109Z,10960
2017-04-17T13:29:13.064Z,11152
2017-04-17T13:30:13.055Z,11596
2017-04-17T13:31:13.038Z,11704
2017-04-17T13:32:13.036Z,11120
2017-04-17T13:33:13.033Z,11024
2017-04-17T13:34:12.387Z,10856
2017-04-17T13:35:13.003Z,10632
2017-04-17T13:36:13.071Z,11368
2017-04-17T13:37:12.988Z,11364
2017-04-17T13:38:12.660Z,10748